Main page
METAR-TAF:

METAR-TAF

Airports :

Newcastle Airport

Newcastle upon Tyne, England

latitude: 55-02N, longitude: 001-42W, elevation: 81 m

Current weather observation

The report was made 19 minutes ago, at 13:50 UTC
Wind 14 kt from the West/Southwest
Temperature 18°C
Humidity 56%
Pressure 1007 hPa
Visibility 10 km or more
Few clouds at a height of 3000 ft

METAR: EGNT 161350Z 25014KT 9999 FEW030 18/09 Q1007

Time: 15:09 (14:09 UTC)

Forecast

The report was made 3 hours and 8 minutes ago, at 11:01 UTC
Forecast valid from 16 at 12 UTC to 17 at 12 UTC
Wind 12 kt from the West
Visibility 10 km or more
Scattered clouds at a height of 4000 ft
Probability 30% :
Temporary
from 16 at 12 UTC to 16 at 17 UTC
Wind 15 kt from the West with gusts up to 25 kt
Visibility: 7000 m
rain showers

TAF: EGNT 161101Z 1612/1712 26012KT 9999 SCT040 PROB30 TEMPO 1612/1617 26015G25KT 7000 SHRA

Weather observations and forecasts of more than 4000 airports (METAR and TAF reports).

The available stations are represented by yellow and red dots on the map.

Hover mouse over dot to see the name of the station.

Then click to see weather observations and forecasts.

To change the map : click on the green buttons with a black cross to zoom in, on the green button with a dash to zoom out, or on the green arrows for adjacent maps.


METAR-TAF: